sensor_id;sensor_type;location;lat;lon;timestamp;P1;durP1;ratioP1;P2;durP2;ratioP2
43114;SDS011;28727;50.068;14.452;2023-05-29T00:01:39;6.93;;;4.45;;
43114;SDS011;28727;50.068;14.452;2023-05-29T00:04:15;6.50;;;2.78;;
43114;SDS011;28727;50.068;14.452;2023-05-29T00:06:47;6.45;;;2.80;;
43114;SDS011;28727;50.068;14.452;2023-05-29T00:09:19;6.28;;;3.00;;
43114;SDS011;28727;50.068;14.452;2023-05-29T00:11:51;4.05;;;2.55;;
43114;SDS011;28727;50.068;14.452;2023-05-29T00:14:24;4.28;;;2.50;;
43114;SDS011;28727;50.068;14.452;2023-05-29T00:16:56;5.82;;;3.17;;
43114;SDS011;28727;50.068;14.452;2023-05-29T00:19:28;5.45;;;3.05;;
43114;SDS011;28727;50.068;14.452;2023-05-29T00:22:00;5.28;;;3.20;;
43114;SDS011;28727;50.068;14.452;2023-05-29T00:24:32;5.63;;;2.90;;
43114;SDS011;28727;50.068;14.452;2023-05-29T00:27:04;4.32;;;2.85;;
43114;SDS011;28727;50.068;14.452;2023-05-29T00:29:36;5.65;;;3.03;;
43114;SDS011;28727;50.068;14.452;2023-05-29T00:34:42;6.70;;;3.05;;
43114;SDS011;28727;50.068;14.452;2023-05-29T00:37:14;5.82;;;2.72;;
43114;SDS011;28727;50.068;14.452;2023-05-29T00:39:50;8.05;;;2.88;;
43114;SDS011;28727;50.068;14.452;2023-05-29T00:42:22;6.68;;;3.22;;
43114;SDS011;28727;50.068;14.452;2023-05-29T00:44:54;4.15;;;2.63;;
43114;SDS011;28727;50.068;14.452;2023-05-29T00:47:26;5.15;;;2.97;;
43114;SDS011;28727;50.068;14.452;2023-05-29T00:49:58;5.20;;;3.05;;
43114;SDS011;28727;50.068;14.452;2023-05-29T00:52:30;4.47;;;2.85;;
43114;SDS011;28727;50.068;14.452;2023-05-29T00:55:03;5.25;;;3.15;;
43114;SDS011;28727;50.068;14.452;2023-05-29T00:57:36;4.97;;;2.90;;
43114;SDS011;28727;50.068;14.452;2023-05-29T01:00:10;7.28;;;3.35;;
43114;SDS011;28727;50.068;14.452;2023-05-29T01:02:47;4.63;;;3.00;;
43114;SDS011;28727;50.068;14.452;2023-05-29T01:05:19;4.57;;;3.00;;
43114;SDS011;28727;50.068;14.452;2023-05-29T01:07:52;8.48;;;3.35;;
43114;SDS011;28727;50.068;14.452;2023-05-29T01:10:25;7.28;;;3.17;;
43114;SDS011;28727;50.068;14.452;2023-05-29T01:13:03;7.97;;;3.42;;
43114;SDS011;28727;50.068;14.452;2023-05-29T01:21:15;6.32;;;3.15;;
43114;SDS011;28727;50.068;14.452;2023-05-29T01:29:40;6.63;;;3.15;;
43114;SDS011;28727;50.068;14.452;2023-05-29T01:32:14;9.07;;;4.00;;
43114;SDS011;28727;50.068;14.452;2023-05-29T01:34:49;7.47;;;3.70;;
43114;SDS011;28727;50.068;14.452;2023-05-29T01:37:21;6.50;;;3.38;;
43114;SDS011;28727;50.068;14.452;2023-05-29T01:39:53;5.70;;;3.22;;
43114;SDS011;28727;50.068;14.452;2023-05-29T01:42:26;7.10;;;3.67;;
43114;SDS011;28727;50.068;14.452;2023-05-29T01:45:01;7.65;;;4.10;;
43114;SDS011;28727;50.068;14.452;2023-05-29T01:47:36;6.63;;;3.95;;
43114;SDS011;28727;50.068;14.452;2023-05-29T01:50:08;7.97;;;4.20;;
43114;SDS011;28727;50.068;14.452;2023-05-29T01:52:42;7.38;;;3.92;;
43114;SDS011;28727;50.068;14.452;2023-05-29T01:55:14;8.23;;;3.85;;
43114;SDS011;28727;50.068;14.452;2023-05-29T01:57:46;7.15;;;3.75;;
43114;SDS011;28727;50.068;14.452;2023-05-29T02:00:18;6.65;;;3.50;;
43114;SDS011;28727;50.068;14.452;2023-05-29T02:02:53;6.45;;;4.20;;
43114;SDS011;28727;50.068;14.452;2023-05-29T02:05:25;8.55;;;4.53;;
43114;SDS011;28727;50.068;14.452;2023-05-29T02:07:57;6.80;;;4.07;;
43114;SDS011;28727;50.068;14.452;2023-05-29T02:10:29;10.18;;;4.38;;
43114;SDS011;28727;50.068;14.452;2023-05-29T02:13:03;7.90;;;3.97;;
43114;SDS011;28727;50.068;14.452;2023-05-29T02:15:35;7.28;;;4.18;;
43114;SDS011;28727;50.068;14.452;2023-05-29T02:18:10;10.93;;;4.00;;
43114;SDS011;28727;50.068;14.452;2023-05-29T02:20:46;8.18;;;4.53;;
43114;SDS011;28727;50.068;14.452;2023-05-29T02:23:25;8.60;;;4.90;;
43114;SDS011;28727;50.068;14.452;2023-05-29T02:25:57;6.65;;;4.03;;
43114;SDS011;28727;50.068;14.452;2023-05-29T02:28:32;7.80;;;4.38;;
43114;SDS011;28727;50.068;14.452;2023-05-29T02:31:04;7.40;;;4.32;;
43114;SDS011;28727;50.068;14.452;2023-05-29T02:33:35;8.10;;;4.50;;
43114;SDS011;28727;50.068;14.452;2023-05-29T02:36:07;8.55;;;3.95;;
43114;SDS011;28727;50.068;14.452;2023-05-29T02:38:41;13.63;;;5.15;;
43114;SDS011;28727;50.068;14.452;2023-05-29T02:41:13;10.10;;;4.47;;
43114;SDS011;28727;50.068;14.452;2023-05-29T02:43:47;6.97;;;4.87;;
43114;SDS011;28727;50.068;14.452;2023-05-29T02:46:19;8.32;;;4.90;;
43114;SDS011;28727;50.068;14.452;2023-05-29T02:48:53;10.00;;;5.03;;
43114;SDS011;28727;50.068;14.452;2023-05-29T02:51:25;7.32;;;4.43;;
43114;SDS011;28727;50.068;14.452;2023-05-29T02:53:56;10.60;;;5.45;;
43114;SDS011;28727;50.068;14.452;2023-05-29T02:56:29;7.05;;;4.30;;
43114;SDS011;28727;50.068;14.452;2023-05-29T02:59:01;9.23;;;4.80;;
43114;SDS011;28727;50.068;14.452;2023-05-29T03:01:33;7.18;;;4.50;;
43114;SDS011;28727;50.068;14.452;2023-05-29T03:04:05;9.48;;;4.80;;
43114;SDS011;28727;50.068;14.452;2023-05-29T03:06:37;10.18;;;4.90;;
43114;SDS011;28727;50.068;14.452;2023-05-29T03:09:10;7.30;;;5.13;;
43114;SDS011;28727;50.068;14.452;2023-05-29T03:11:43;7.47;;;4.50;;
43114;SDS011;28727;50.068;14.452;2023-05-29T03:14:16;9.07;;;5.00;;
43114;SDS011;28727;50.068;14.452;2023-05-29T03:16:50;8.88;;;5.13;;
43114;SDS011;28727;50.068;14.452;2023-05-29T03:19:22;12.45;;;7.13;;
43114;SDS011;28727;50.068;14.452;2023-05-29T03:21:54;12.48;;;6.93;;
43114;SDS011;28727;50.068;14.452;2023-05-29T03:24:26;9.23;;;5.00;;
43114;SDS011;28727;50.068;14.452;2023-05-29T03:26:58;11.35;;;5.20;;
43114;SDS011;28727;50.068;14.452;2023-05-29T03:29:33;7.65;;;4.80;;
43114;SDS011;28727;50.068;14.452;2023-05-29T03:32:06;9.50;;;4.43;;
43114;SDS011;28727;50.068;14.452;2023-05-29T03:34:39;11.25;;;4.50;;
43114;SDS011;28727;50.068;14.452;2023-05-29T03:37:11;9.95;;;4.13;;
43114;SDS011;28727;50.068;14.452;2023-05-29T03:39:47;10.10;;;4.85;;
43114;SDS011;28727;50.068;14.452;2023-05-29T03:42:19;8.77;;;4.45;;
43114;SDS011;28727;50.068;14.452;2023-05-29T03:44:54;8.88;;;5.00;;
43114;SDS011;28727;50.068;14.452;2023-05-29T03:47:27;8.63;;;5.30;;
43114;SDS011;28727;50.068;14.452;2023-05-29T03:49:59;7.28;;;4.57;;
43114;SDS011;28727;50.068;14.452;2023-05-29T03:52:34;11.70;;;5.28;;
43114;SDS011;28727;50.068;14.452;2023-05-29T03:55:08;9.18;;;4.70;;
43114;SDS011;28727;50.068;14.452;2023-05-29T03:57:41;9.13;;;4.93;;
43114;SDS011;28727;50.068;14.452;2023-05-29T04:00:14;7.28;;;4.43;;
43114;SDS011;28727;50.068;14.452;2023-05-29T04:02:50;8.27;;;4.75;;
43114;SDS011;28727;50.068;14.452;2023-05-29T04:07:56;10.70;;;4.97;;
43114;SDS011;28727;50.068;14.452;2023-05-29T04:10:45;8.45;;;5.38;;
43114;SDS011;28727;50.068;14.452;2023-05-29T04:13:17;9.70;;;5.05;;
43114;SDS011;28727;50.068;14.452;2023-05-29T04:15:49;9.60;;;4.78;;
43114;SDS011;28727;50.068;14.452;2023-05-29T04:18:25;7.22;;;4.60;;
43114;SDS011;28727;50.068;14.452;2023-05-29T04:21:00;7.57;;;5.22;;
43114;SDS011;28727;50.068;14.452;2023-05-29T04:23:32;9.50;;;4.53;;
43114;SDS011;28727;50.068;14.452;2023-05-29T04:26:04;10.52;;;5.28;;
43114;SDS011;28727;50.068;14.452;2023-05-29T04:28:39;9.30;;;4.80;;
43114;SDS011;28727;50.068;14.452;2023-05-29T04:31:11;8.45;;;4.85;;
43114;SDS011;28727;50.068;14.452;2023-05-29T04:33:45;9.70;;;4.38;;
43114;SDS011;28727;50.068;14.452;2023-05-29T04:36:17;10.85;;;4.47;;
43114;SDS011;28727;50.068;14.452;2023-05-29T04:38:52;11.20;;;5.43;;
43114;SDS011;28727;50.068;14.452;2023-05-29T04:41:26;7.30;;;4.78;;
43114;SDS011;28727;50.068;14.452;2023-05-29T04:44:04;9.95;;;5.15;;
43114;SDS011;28727;50.068;14.452;2023-05-29T04:46:45;8.13;;;5.07;;
43114;SDS011;28727;50.068;14.452;2023-05-29T04:49:19;8.38;;;5.30;;
43114;SDS011;28727;50.068;14.452;2023-05-29T04:51:51;11.52;;;5.07;;
43114;SDS011;28727;50.068;14.452;2023-05-29T04:54:23;8.48;;;5.07;;
43114;SDS011;28727;50.068;14.452;2023-05-29T04:56:58;9.93;;;4.60;;
43114;SDS011;28727;50.068;14.452;2023-05-29T04:59:34;9.23;;;4.78;;
43114;SDS011;28727;50.068;14.452;2023-05-29T05:02:07;7.80;;;5.32;;
43114;SDS011;28727;50.068;14.452;2023-05-29T05:04:39;9.07;;;4.40;;
43114;SDS011;28727;50.068;14.452;2023-05-29T05:07:10;10.88;;;4.93;;
43114;SDS011;28727;50.068;14.452;2023-05-29T05:09:43;8.70;;;4.47;;
43114;SDS011;28727;50.068;14.452;2023-05-29T05:12:22;10.77;;;5.30;;
43114;SDS011;28727;50.068;14.452;2023-05-29T05:14:55;11.98;;;5.00;;
43114;SDS011;28727;50.068;14.452;2023-05-29T05:17:28;12.18;;;4.90;;
43114;SDS011;28727;50.068;14.452;2023-05-29T05:20:00;10.73;;;4.43;;
43114;SDS011;28727;50.068;14.452;2023-05-29T05:22:33;10.75;;;4.53;;
43114;SDS011;28727;50.068;14.452;2023-05-29T05:25:05;10.70;;;5.00;;
43114;SDS011;28727;50.068;14.452;2023-05-29T05:27:37;7.28;;;3.95;;
43114;SDS011;28727;50.068;14.452;2023-05-29T05:30:09;8.68;;;4.28;;
43114;SDS011;28727;50.068;14.452;2023-05-29T05:32:42;8.40;;;4.75;;
43114;SDS011;28727;50.068;14.452;2023-05-29T05:35:14;16.50;;;5.88;;
43114;SDS011;28727;50.068;14.452;2023-05-29T05:37:46;12.02;;;4.30;;
43114;SDS011;28727;50.068;14.452;2023-05-29T05:40:18;8.88;;;4.22;;
43114;SDS011;28727;50.068;14.452;2023-05-29T05:43:02;8.95;;;4.35;;
43114;SDS011;28727;50.068;14.452;2023-05-29T05:45:53;15.98;;;4.75;;
43114;SDS011;28727;50.068;14.452;2023-05-29T05:48:25;11.52;;;4.43;;
43114;SDS011;28727;50.068;14.452;2023-05-29T05:50:57;8.80;;;4.97;;
43114;SDS011;28727;50.068;14.452;2023-05-29T05:53:29;7.93;;;4.60;;
43114;SDS011;28727;50.068;14.452;2023-05-29T05:56:02;10.52;;;4.68;;
43114;SDS011;28727;50.068;14.452;2023-05-29T05:58:34;12.52;;;4.75;;
43114;SDS011;28727;50.068;14.452;2023-05-29T06:01:06;8.73;;;4.30;;
43114;SDS011;28727;50.068;14.452;2023-05-29T06:03:39;11.38;;;4.53;;
43114;SDS011;28727;50.068;14.452;2023-05-29T06:06:14;10.98;;;4.72;;
43114;SDS011;28727;50.068;14.452;2023-05-29T06:08:47;12.70;;;4.88;;
43114;SDS011;28727;50.068;14.452;2023-05-29T06:11:21;11.80;;;4.78;;
43114;SDS011;28727;50.068;14.452;2023-05-29T06:13:54;7.20;;;4.47;;
43114;SDS011;28727;50.068;14.452;2023-05-29T06:16:32;11.65;;;5.18;;
43114;SDS011;28727;50.068;14.452;2023-05-29T06:19:07;8.25;;;4.85;;
43114;SDS011;28727;50.068;14.452;2023-05-29T06:21:55;9.93;;;5.25;;
43114;SDS011;28727;50.068;14.452;2023-05-29T06:24:27;12.75;;;5.00;;
43114;SDS011;28727;50.068;14.452;2023-05-29T06:27:00;9.05;;;4.38;;
43114;SDS011;28727;50.068;14.452;2023-05-29T06:29:33;10.75;;;4.88;;
43114;SDS011;28727;50.068;14.452;2023-05-29T06:32:05;8.35;;;4.53;;
43114;SDS011;28727;50.068;14.452;2023-05-29T06:34:37;12.80;;;5.03;;
43114;SDS011;28727;50.068;14.452;2023-05-29T06:37:09;8.57;;;4.85;;
43114;SDS011;28727;50.068;14.452;2023-05-29T06:39:45;11.73;;;4.97;;
43114;SDS011;28727;50.068;14.452;2023-05-29T06:42:17;11.75;;;4.78;;
43114;SDS011;28727;50.068;14.452;2023-05-29T06:44:49;10.52;;;5.10;;
43114;SDS011;28727;50.068;14.452;2023-05-29T06:47:21;9.95;;;4.57;;
43114;SDS011;28727;50.068;14.452;2023-05-29T06:49:54;11.52;;;4.25;;
43114;SDS011;28727;50.068;14.452;2023-05-29T06:52:26;7.72;;;4.03;;
43114;SDS011;28727;50.068;14.452;2023-05-29T06:55:16;9.32;;;4.63;;
43114;SDS011;28727;50.068;14.452;2023-05-29T06:57:48;9.80;;;4.40;;
43114;SDS011;28727;50.068;14.452;2023-05-29T07:00:20;9.20;;;4.00;;
43114;SDS011;28727;50.068;14.452;2023-05-29T07:03:02;15.38;;;4.22;;
43114;SDS011;28727;50.068;14.452;2023-05-29T07:05:34;13.98;;;4.10;;
43114;SDS011;28727;50.068;14.452;2023-05-29T07:08:06;9.70;;;3.30;;
43114;SDS011;28727;50.068;14.452;2023-05-29T07:10:38;8.52;;;3.28;;
43114;SDS011;28727;50.068;14.452;2023-05-29T07:13:14;7.93;;;3.30;;
43114;SDS011;28727;50.068;14.452;2023-05-29T07:15:50;5.45;;;2.40;;
43114;SDS011;28727;50.068;14.452;2023-05-29T07:18:28;6.40;;;2.50;;
43114;SDS011;28727;50.068;14.452;2023-05-29T07:21:00;14.30;;;3.40;;
43114;SDS011;28727;50.068;14.452;2023-05-29T07:23:34;6.05;;;2.55;;
43114;SDS011;28727;50.068;14.452;2023-05-29T07:26:06;6.22;;;2.50;;
43114;SDS011;28727;50.068;14.452;2023-05-29T07:28:38;7.65;;;2.58;;
43114;SDS011;28727;50.068;14.452;2023-05-29T07:31:10;7.55;;;3.03;;
43114;SDS011;28727;50.068;14.452;2023-05-29T07:33:42;5.45;;;2.40;;
43114;SDS011;28727;50.068;14.452;2023-05-29T07:36:15;7.90;;;2.83;;
43114;SDS011;28727;50.068;14.452;2023-05-29T07:38:47;6.00;;;2.97;;
43114;SDS011;28727;50.068;14.452;2023-05-29T07:41:22;7.25;;;3.00;;
43114;SDS011;28727;50.068;14.452;2023-05-29T07:43:56;7.28;;;2.83;;
43114;SDS011;28727;50.068;14.452;2023-05-29T07:46:28;8.50;;;2.55;;
43114;SDS011;28727;50.068;14.452;2023-05-29T07:49:17;5.68;;;2.20;;
43114;SDS011;28727;50.068;14.452;2023-05-29T07:51:51;10.05;;;2.67;;
43114;SDS011;28727;50.068;14.452;2023-05-29T07:54:23;9.38;;;2.35;;
43114;SDS011;28727;50.068;14.452;2023-05-29T07:56:56;11.68;;;3.22;;
43114;SDS011;28727;50.068;14.452;2023-05-29T07:59:28;5.47;;;2.10;;
43114;SDS011;28727;50.068;14.452;2023-05-29T08:02:03;6.55;;;2.22;;
43114;SDS011;28727;50.068;14.452;2023-05-29T08:04:48;6.30;;;2.08;;
43114;SDS011;28727;50.068;14.452;2023-05-29T08:07:20;12.70;;;2.53;;
43114;SDS011;28727;50.068;14.452;2023-05-29T08:09:53;7.60;;;2.50;;
43114;SDS011;28727;50.068;14.452;2023-05-29T08:12:25;4.13;;;2.00;;
43114;SDS011;28727;50.068;14.452;2023-05-29T08:14:59;5.05;;;2.03;;
43114;SDS011;28727;50.068;14.452;2023-05-29T08:17:31;7.25;;;2.00;;
43114;SDS011;28727;50.068;14.452;2023-05-29T08:20:03;4.05;;;2.30;;
43114;SDS011;28727;50.068;14.452;2023-05-29T08:22:41;4.50;;;2.10;;
43114;SDS011;28727;50.068;14.452;2023-05-29T08:25:13;6.32;;;2.08;;
43114;SDS011;28727;50.068;14.452;2023-05-29T08:27:45;4.88;;;2.13;;
43114;SDS011;28727;50.068;14.452;2023-05-29T08:30:20;5.15;;;2.38;;
43114;SDS011;28727;50.068;14.452;2023-05-29T08:32:53;6.82;;;2.53;;
43114;SDS011;28727;50.068;14.452;2023-05-29T08:35:25;5.70;;;2.30;;
43114;SDS011;28727;50.068;14.452;2023-05-29T08:37:57;7.22;;;2.28;;
43114;SDS011;28727;50.068;14.452;2023-05-29T08:40:28;4.35;;;2.00;;
43114;SDS011;28727;50.068;14.452;2023-05-29T08:43:22;4.43;;;2.05;;
43114;SDS011;28727;50.068;14.452;2023-05-29T08:45:54;6.15;;;2.17;;
43114;SDS011;28727;50.068;14.452;2023-05-29T08:48:29;4.63;;;2.03;;
43114;SDS011;28727;50.068;14.452;2023-05-29T08:51:02;5.38;;;2.00;;
43114;SDS011;28727;50.068;14.452;2023-05-29T08:53:35;3.47;;;1.98;;
43114;SDS011;28727;50.068;14.452;2023-05-29T08:56:08;4.70;;;2.33;;
43114;SDS011;28727;50.068;14.452;2023-05-29T08:58:47;8.00;;;2.63;;
43114;SDS011;28727;50.068;14.452;2023-05-29T09:01:20;4.10;;;2.15;;
43114;SDS011;28727;50.068;14.452;2023-05-29T09:03:53;5.23;;;2.03;;
43114;SDS011;28727;50.068;14.452;2023-05-29T09:06:26;5.07;;;2.15;;
43114;SDS011;28727;50.068;14.452;2023-05-29T09:08:58;24.80;;;2.97;;
43114;SDS011;28727;50.068;14.452;2023-05-29T09:11:30;4.93;;;2.00;;
43114;SDS011;28727;50.068;14.452;2023-05-29T09:14:01;4.32;;;1.95;;
43114;SDS011;28727;50.068;14.452;2023-05-29T09:16:40;3.20;;;1.98;;
43114;SDS011;28727;50.068;14.452;2023-05-29T09:19:14;6.00;;;2.30;;
43114;SDS011;28727;50.068;14.452;2023-05-29T09:21:47;4.93;;;2.13;;
43114;SDS011;28727;50.068;14.452;2023-05-29T09:24:19;6.55;;;2.30;;
43114;SDS011;28727;50.068;14.452;2023-05-29T09:26:51;7.10;;;2.53;;
43114;SDS011;28727;50.068;14.452;2023-05-29T09:29:23;6.57;;;2.10;;
43114;SDS011;28727;50.068;14.452;2023-05-29T09:31:55;6.25;;;2.17;;
43114;SDS011;28727;50.068;14.452;2023-05-29T09:34:28;9.07;;;2.05;;
43114;SDS011;28727;50.068;14.452;2023-05-29T09:37:06;5.15;;;2.40;;
43114;SDS011;28727;50.068;14.452;2023-05-29T09:39:49;4.28;;;1.92;;
43114;SDS011;28727;50.068;14.452;2023-05-29T09:42:25;6.70;;;2.30;;
43114;SDS011;28727;50.068;14.452;2023-05-29T09:44:59;4.47;;;2.10;;
43114;SDS011;28727;50.068;14.452;2023-05-29T09:47:32;4.18;;;2.10;;
43114;SDS011;28727;50.068;14.452;2023-05-29T09:50:05;5.68;;;2.67;;
43114;SDS011;28727;50.068;14.452;2023-05-29T09:52:39;3.72;;;2.50;;
43114;SDS011;28727;50.068;14.452;2023-05-29T09:55:10;3.47;;;1.88;;
43114;SDS011;28727;50.068;14.452;2023-05-29T09:57:42;6.47;;;2.60;;
43114;SDS011;28727;50.068;14.452;2023-05-29T10:00:15;3.35;;;2.08;;
43114;SDS011;28727;50.068;14.452;2023-05-29T10:02:48;6.88;;;2.20;;
43114;SDS011;28727;50.068;14.452;2023-05-29T10:05:21;6.03;;;2.30;;
43114;SDS011;28727;50.068;14.452;2023-05-29T10:07:53;3.90;;;1.80;;
43114;SDS011;28727;50.068;14.452;2023-05-29T10:10:26;10.02;;;2.28;;
43114;SDS011;28727;50.068;14.452;2023-05-29T10:12:59;6.65;;;2.40;;
43114;SDS011;28727;50.068;14.452;2023-05-29T10:15:35;9.13;;;2.83;;
43114;SDS011;28727;50.068;14.452;2023-05-29T10:18:42;8.35;;;2.97;;
43114;SDS011;28727;50.068;14.452;2023-05-29T10:21:11;5.38;;;2.50;;
43114;SDS011;28727;50.068;14.452;2023-05-29T10:23:46;36.90;;;5.40;;
43114;SDS011;28727;50.068;14.452;2023-05-29T10:26:26;5.15;;;2.28;;
43114;SDS011;28727;50.068;14.452;2023-05-29T10:29:04;6.28;;;2.30;;
43114;SDS011;28727;50.068;14.452;2023-05-29T10:34:22;63.35;;;5.30;;
43114;SDS011;28727;50.068;14.452;2023-05-29T10:36:59;3.88;;;2.53;;
43114;SDS011;28727;50.068;14.452;2023-05-29T10:39:37;8.05;;;2.40;;
43114;SDS011;28727;50.068;14.452;2023-05-29T10:42:52;4.78;;;2.30;;
43114;SDS011;28727;50.068;14.452;2023-05-29T10:45:10;4.35;;;1.98;;
43114;SDS011;28727;50.068;14.452;2023-05-29T10:47:43;11.18;;;2.83;;
43114;SDS011;28727;50.068;14.452;2023-05-29T10:50:15;4.10;;;2.30;;
43114;SDS011;28727;50.068;14.452;2023-05-29T10:53:16;3.85;;;2.30;;
43114;SDS011;28727;50.068;14.452;2023-05-29T10:55:50;5.10;;;2.13;;
43114;SDS011;28727;50.068;14.452;2023-05-29T10:58:23;7.38;;;2.25;;
43114;SDS011;28727;50.068;14.452;2023-05-29T11:00:57;7.38;;;2.30;;
43114;SDS011;28727;50.068;14.452;2023-05-29T11:03:30;5.10;;;2.55;;
43114;SDS011;28727;50.068;14.452;2023-05-29T11:06:04;4.32;;;2.40;;
43114;SDS011;28727;50.068;14.452;2023-05-29T11:08:45;5.70;;;2.33;;
43114;SDS011;28727;50.068;14.452;2023-05-29T11:14:05;6.18;;;2.10;;
43114;SDS011;28727;50.068;14.452;2023-05-29T11:16:38;4.45;;;2.30;;
43114;SDS011;28727;50.068;14.452;2023-05-29T11:19:10;5.25;;;2.05;;
43114;SDS011;28727;50.068;14.452;2023-05-29T11:21:55;5.32;;;2.40;;
43114;SDS011;28727;50.068;14.452;2023-05-29T11:24:38;3.85;;;2.05;;
43114;SDS011;28727;50.068;14.452;2023-05-29T11:27:11;7.15;;;2.70;;
43114;SDS011;28727;50.068;14.452;2023-05-29T11:29:44;3.70;;;2.33;;
43114;SDS011;28727;50.068;14.452;2023-05-29T11:32:16;3.92;;;2.20;;
43114;SDS011;28727;50.068;14.452;2023-05-29T11:34:49;6.10;;;2.67;;
43114;SDS011;28727;50.068;14.452;2023-05-29T11:37:23;6.55;;;2.38;;
43114;SDS011;28727;50.068;14.452;2023-05-29T11:39:58;5.15;;;2.10;;
43114;SDS011;28727;50.068;14.452;2023-05-29T11:42:30;5.80;;;2.45;;
43114;SDS011;28727;50.068;14.452;2023-05-29T11:47:56;5.95;;;2.05;;
43114;SDS011;28727;50.068;14.452;2023-05-29T11:50:32;3.55;;;2.25;;
43114;SDS011;28727;50.068;14.452;2023-05-29T11:53:05;6.68;;;2.13;;
43114;SDS011;28727;50.068;14.452;2023-05-29T11:55:38;6.87;;;1.90;;
43114;SDS011;28727;50.068;14.452;2023-05-29T11:58:11;7.38;;;2.10;;
43114;SDS011;28727;50.068;14.452;2023-05-29T12:00:44;5.33;;;2.67;;
43114;SDS011;28727;50.068;14.452;2023-05-29T12:03:21;2.45;;;1.77;;
43114;SDS011;28727;50.068;14.452;2023-05-29T12:05:53;8.02;;;1.90;;
43114;SDS011;28727;50.068;14.452;2023-05-29T12:08:27;4.45;;;1.98;;
43114;SDS011;28727;50.068;14.452;2023-05-29T12:10:59;3.50;;;2.03;;
43114;SDS011;28727;50.068;14.452;2023-05-29T12:13:31;3.88;;;1.90;;
43114;SDS011;28727;50.068;14.452;2023-05-29T12:16:04;7.82;;;2.00;;
43114;SDS011;28727;50.068;14.452;2023-05-29T12:18:37;3.15;;;1.80;;
43114;SDS011;28727;50.068;14.452;2023-05-29T12:21:09;4.72;;;1.95;;
43114;SDS011;28727;50.068;14.452;2023-05-29T12:23:42;6.50;;;2.10;;
43114;SDS011;28727;50.068;14.452;2023-05-29T12:26:14;4.22;;;2.05;;
43114;SDS011;28727;50.068;14.452;2023-05-29T12:28:47;2.97;;;1.88;;
43114;SDS011;28727;50.068;14.452;2023-05-29T12:31:29;5.82;;;2.00;;
43114;SDS011;28727;50.068;14.452;2023-05-29T12:34:07;4.18;;;1.80;;
43114;SDS011;28727;50.068;14.452;2023-05-29T12:36:41;3.40;;;2.35;;
43114;SDS011;28727;50.068;14.452;2023-05-29T12:39:16;7.80;;;2.55;;
43114;SDS011;28727;50.068;14.452;2023-05-29T12:41:48;5.13;;;1.88;;
43114;SDS011;28727;50.068;14.452;2023-05-29T12:44:21;4.97;;;1.80;;
43114;SDS011;28727;50.068;14.452;2023-05-29T12:46:58;2.97;;;1.85;;
43114;SDS011;28727;50.068;14.452;2023-05-29T12:49:30;4.53;;;2.00;;
43114;SDS011;28727;50.068;14.452;2023-05-29T12:52:06;4.72;;;1.77;;
43114;SDS011;28727;50.068;14.452;2023-05-29T12:54:39;3.47;;;2.00;;
43114;SDS011;28727;50.068;14.452;2023-05-29T12:57:11;4.78;;;2.40;;
43114;SDS011;28727;50.068;14.452;2023-05-29T12:59:43;5.72;;;1.83;;
43114;SDS011;28727;50.068;14.452;2023-05-29T13:02:15;2.20;;;1.60;;
43114;SDS011;28727;50.068;14.452;2023-05-29T13:04:47;5.28;;;2.38;;
43114;SDS011;28727;50.068;14.452;2023-05-29T13:07:20;5.10;;;2.10;;
43114;SDS011;28727;50.068;14.452;2023-05-29T13:09:53;3.75;;;2.00;;
43114;SDS011;28727;50.068;14.452;2023-05-29T13:12:25;4.45;;;2.20;;
43114;SDS011;28727;50.068;14.452;2023-05-29T13:14:56;5.63;;;2.22;;
43114;SDS011;28727;50.068;14.452;2023-05-29T13:17:28;3.65;;;2.13;;
43114;SDS011;28727;50.068;14.452;2023-05-29T13:20:00;4.80;;;2.20;;
43114;SDS011;28727;50.068;14.452;2023-05-29T13:22:32;8.77;;;2.28;;
43114;SDS011;28727;50.068;14.452;2023-05-29T13:25:05;4.90;;;2.00;;
43114;SDS011;28727;50.068;14.452;2023-05-29T13:27:38;3.63;;;2.05;;
43114;SDS011;28727;50.068;14.452;2023-05-29T13:30:13;5.85;;;2.30;;
43114;SDS011;28727;50.068;14.452;2023-05-29T13:32:45;7.43;;;2.40;;
43114;SDS011;28727;50.068;14.452;2023-05-29T13:35:20;6.15;;;1.95;;
43114;SDS011;28727;50.068;14.452;2023-05-29T13:37:52;8.40;;;2.25;;
43114;SDS011;28727;50.068;14.452;2023-05-29T13:40:25;6.45;;;2.10;;
43114;SDS011;28727;50.068;14.452;2023-05-29T13:42:57;6.22;;;2.00;;
43114;SDS011;28727;50.068;14.452;2023-05-29T13:45:29;4.70;;;2.05;;
43114;SDS011;28727;50.068;14.452;2023-05-29T13:48:02;5.45;;;2.20;;
43114;SDS011;28727;50.068;14.452;2023-05-29T13:50:34;4.43;;;2.25;;
43114;SDS011;28727;50.068;14.452;2023-05-29T13:53:07;4.50;;;2.00;;
43114;SDS011;28727;50.068;14.452;2023-05-29T13:55:39;42.22;;;4.68;;
43114;SDS011;28727;50.068;14.452;2023-05-29T13:58:10;30.85;;;2.63;;
43114;SDS011;28727;50.068;14.452;2023-05-29T14:00:42;7.50;;;2.47;;
43114;SDS011;28727;50.068;14.452;2023-05-29T14:03:17;5.10;;;2.05;;
43114;SDS011;28727;50.068;14.452;2023-05-29T14:05:53;4.70;;;2.15;;
43114;SDS011;28727;50.068;14.452;2023-05-29T14:08:25;7.22;;;2.53;;
43114;SDS011;28727;50.068;14.452;2023-05-29T14:10:57;6.25;;;2.30;;
43114;SDS011;28727;50.068;14.452;2023-05-29T14:13:29;6.28;;;2.10;;
43114;SDS011;28727;50.068;14.452;2023-05-29T14:16:01;7.45;;;2.22;;
43114;SDS011;28727;50.068;14.452;2023-05-29T14:18:33;4.10;;;2.30;;
43114;SDS011;28727;50.068;14.452;2023-05-29T14:21:05;7.70;;;2.30;;
43114;SDS011;28727;50.068;14.452;2023-05-29T14:23:37;8.95;;;2.60;;
43114;SDS011;28727;50.068;14.452;2023-05-29T14:26:09;4.70;;;2.35;;
43114;SDS011;28727;50.068;14.452;2023-05-29T14:28:41;6.85;;;2.35;;
43114;SDS011;28727;50.068;14.452;2023-05-29T14:31:13;4.13;;;2.20;;
43114;SDS011;28727;50.068;14.452;2023-05-29T14:33:45;5.45;;;2.20;;
43114;SDS011;28727;50.068;14.452;2023-05-29T14:36:17;5.57;;;2.13;;
43114;SDS011;28727;50.068;14.452;2023-05-29T14:38:49;4.15;;;2.65;;
43114;SDS011;28727;50.068;14.452;2023-05-29T14:41:21;6.03;;;1.75;;
43114;SDS011;28727;50.068;14.452;2023-05-29T14:43:52;4.93;;;2.25;;
43114;SDS011;28727;50.068;14.452;2023-05-29T14:46:25;15.43;;;2.90;;
43114;SDS011;28727;50.068;14.452;2023-05-29T14:48:58;5.25;;;2.30;;
43114;SDS011;28727;50.068;14.452;2023-05-29T14:51:31;9.45;;;2.40;;
43114;SDS011;28727;50.068;14.452;2023-05-29T14:54:04;4.47;;;2.38;;
43114;SDS011;28727;50.068;14.452;2023-05-29T14:56:36;6.45;;;2.55;;
43114;SDS011;28727;50.068;14.452;2023-05-29T14:59:07;4.22;;;1.83;;
43114;SDS011;28727;50.068;14.452;2023-05-29T15:01:39;6.07;;;2.17;;
43114;SDS011;28727;50.068;14.452;2023-05-29T15:04:11;3.58;;;1.90;;
43114;SDS011;28727;50.068;14.452;2023-05-29T15:06:43;4.47;;;2.30;;
43114;SDS011;28727;50.068;14.452;2023-05-29T15:09:26;6.15;;;2.33;;
43114;SDS011;28727;50.068;14.452;2023-05-29T15:11:58;3.70;;;1.85;;
43114;SDS011;28727;50.068;14.452;2023-05-29T15:14:29;4.95;;;2.10;;
43114;SDS011;28727;50.068;14.452;2023-05-29T15:17:01;5.63;;;2.20;;
43114;SDS011;28727;50.068;14.452;2023-05-29T15:19:33;11.15;;;2.53;;
43114;SDS011;28727;50.068;14.452;2023-05-29T15:22:05;20.02;;;3.05;;
43114;SDS011;28727;50.068;14.452;2023-05-29T15:24:37;4.05;;;2.08;;
43114;SDS011;28727;50.068;14.452;2023-05-29T15:27:09;9.15;;;2.00;;
43114;SDS011;28727;50.068;14.452;2023-05-29T15:29:41;6.60;;;2.20;;
43114;SDS011;28727;50.068;14.452;2023-05-29T15:32:13;4.72;;;2.28;;
43114;SDS011;28727;50.068;14.452;2023-05-29T15:34:45;9.73;;;2.72;;
43114;SDS011;28727;50.068;14.452;2023-05-29T15:37:16;4.97;;;2.83;;